sensor_id;sensor_type;location;lat;lon;timestamp;temperature;humidity
75838;SHT30;64480;52.040;113.502;2022-11-15T00:02:35;-5.23;64.37
75838;SHT30;64480;52.040;113.502;2022-11-15T00:12:10;-5.04;64.53
75838;SHT30;64480;52.040;113.502;2022-11-15T00:32:30;-3.97;61.07
75838;SHT30;64480;52.040;113.502;2022-11-15T00:36:03;-3.88;60.62
75838;SHT30;64480;52.040;113.502;2022-11-15T00:39:26;-3.79;60.17
75838;SHT30;64480;52.040;113.502;2022-11-15T01:09:28;-3.99;62.44
75838;SHT30;64480;52.040;113.502;2022-11-15T01:13:35;-3.74;61.32
75838;SHT30;64480;52.040;113.502;2022-11-15T01:21:36;-3.31;60.51
75838;SHT30;64480;52.040;113.502;2022-11-15T01:29:52;-2.86;59.38
75838;SHT30;64480;52.040;113.502;2022-11-15T01:47:44;-2.32;57.62
75838;SHT30;64480;52.040;113.502;2022-11-15T01:51:09;-2.27;57.80
75838;SHT30;64480;52.040;113.502;2022-11-15T01:54:31;-2.21;57.66
75838;SHT30;64480;52.040;113.502;2022-11-15T02:07:15;-1.75;57.16
75838;SHT30;64480;52.040;113.502;2022-11-15T02:11:23;-1.63;56.82
75838;SHT30;64480;52.040;113.502;2022-11-15T02:15:17;-1.52;56.70
75838;SHT30;64480;52.040;113.502;2022-11-15T02:27:30;-1.07;55.60
75838;SHT30;64480;52.040;113.502;2022-11-15T02:43:10;-0.64;54.97
75838;SHT30;64480;52.040;113.502;2022-11-15T02:47:04;-0.47;54.81
75838;SHT30;64480;52.040;113.502;2022-11-15T02:50:38;-0.34;54.72
75838;SHT30;64480;52.040;113.502;2022-11-15T02:54:22;-0.24;54.45
75838;SHT30;64480;52.040;113.502;2022-11-15T03:06:16;0.15;53.48
75838;SHT30;64480;52.040;113.502;2022-11-15T03:10:12;0.28;53.49
75838;SHT30;64480;52.040;113.502;2022-11-15T03:17:30;0.58;52.49
75838;SHT30;64480;52.040;113.502;2022-11-15T03:21:12;0.61;51.95
75838;SHT30;64480;52.040;113.502;2022-11-15T03:24:41;0.68;52.09
75838;SHT30;64480;52.040;113.502;2022-11-15T03:46:32;1.14;51.05
75838;SHT30;64480;52.040;113.502;2022-11-15T03:50:24;1.23;51.17
75838;SHT30;64480;52.040;113.502;2022-11-15T03:53:52;1.25;51.03
75838;SHT30;64480;52.040;113.502;2022-11-15T03:57:30;1.36;50.59
75838;SHT30;64480;52.040;113.502;2022-11-15T04:00:56;1.51;50.56
75838;SHT30;64480;52.040;113.502;2022-11-15T04:04:57;1.66;50.44
75838;SHT30;64480;52.040;113.502;2022-11-15T04:08:21;1.66;49.81
75838;SHT30;64480;52.040;113.502;2022-11-15T04:15:59;1.80;49.85
75838;SHT30;64480;52.040;113.502;2022-11-15T04:19:54;1.97;49.47
75838;SHT30;64480;52.040;113.502;2022-11-15T04:28:24;2.59;48.40
75838;SHT30;64480;52.040;113.502;2022-11-15T04:36:49;3.19;45.93
75838;SHT30;64480;52.040;113.502;2022-11-15T04:40:36;3.27;45.74
75838;SHT30;64480;52.040;113.502;2022-11-15T04:44:08;3.19;45.86
75838;SHT30;64480;52.040;113.502;2022-11-15T04:47:36;3.11;46.37
75838;SHT30;64480;52.040;113.502;2022-11-15T04:51:23;3.04;46.91
75838;SHT30;64480;52.040;113.502;2022-11-15T04:55:06;3.01;47.18
75838;SHT30;64480;52.040;113.502;2022-11-15T04:58:37;3.00;47.05
75838;SHT30;64480;52.040;113.502;2022-11-15T05:02:05;3.08;47.14
75838;SHT30;64480;52.040;113.502;2022-11-15T05:05:34;3.04;47.32
75838;SHT30;64480;52.040;113.502;2022-11-15T05:09:05;3.07;47.72
75838;SHT30;64480;52.040;113.502;2022-11-15T05:12:30;3.11;46.79
75838;SHT30;64480;52.040;113.502;2022-11-15T05:15:58;3.11;47.32
75838;SHT30;64480;52.040;113.502;2022-11-15T05:19:28;3.09;47.23
75838;SHT30;64480;52.040;113.502;2022-11-15T05:23:02;3.07;47.09
75838;SHT30;64480;52.040;113.502;2022-11-15T05:27:17;3.22;47.41
75838;SHT30;64480;52.040;113.502;2022-11-15T05:30:39;3.31;47.18
75838;SHT30;64480;52.040;113.502;2022-11-15T05:34:04;3.35;47.21
75838;SHT30;64480;52.040;113.502;2022-11-15T05:37:26;3.36;46.91
75838;SHT30;64480;52.040;113.502;2022-11-15T05:41:05;3.38;47.44
75838;SHT30;64480;52.040;113.502;2022-11-15T05:44:32;3.27;47.03
75838;SHT30;64480;52.040;113.502;2022-11-15T05:48:04;3.22;47.29
75838;SHT30;64480;52.040;113.502;2022-11-15T05:51:29;3.28;46.87
75838;SHT30;64480;52.040;113.502;2022-11-15T05:55:15;3.32;47.11
75838;SHT30;64480;52.040;113.502;2022-11-15T05:58:37;3.34;46.77
75838;SHT30;64480;52.040;113.502;2022-11-15T06:02:24;3.55;46.20
75838;SHT30;64480;52.040;113.502;2022-11-15T06:06:16;3.91;44.82
75838;SHT30;64480;52.040;113.502;2022-11-15T06:09:54;4.08;44.50
75838;SHT30;64480;52.040;113.502;2022-11-15T06:13:37;4.14;44.25
75838;SHT30;64480;52.040;113.502;2022-11-15T06:17:03;4.11;44.22
75838;SHT30;64480;52.040;113.502;2022-11-15T06:20:43;4.05;44.78
75838;SHT30;64480;52.040;113.502;2022-11-15T06:24:09;4.01;44.98
75838;SHT30;64480;52.040;113.502;2022-11-15T06:27:35;3.91;45.83
75838;SHT30;64480;52.040;113.502;2022-11-15T06:31:03;3.91;45.85
75838;SHT30;64480;52.040;113.502;2022-11-15T06:34:33;3.97;46.01
75838;SHT30;64480;52.040;113.502;2022-11-15T06:38:12;3.86;45.79
75838;SHT30;64480;52.040;113.502;2022-11-15T06:41:49;3.79;46.02
75838;SHT30;64480;52.040;113.502;2022-11-15T06:45:11;3.76;45.95
75838;SHT30;64480;52.040;113.502;2022-11-15T06:48:33;3.69;46.34
75838;SHT30;64480;52.040;113.502;2022-11-15T06:51:57;3.59;46.02
75838;SHT30;64480;52.040;113.502;2022-11-15T06:55:37;3.67;45.97
75838;SHT30;64480;52.040;113.502;2022-11-15T06:58:59;3.69;46.22
75838;SHT30;64480;52.040;113.502;2022-11-15T07:02:48;3.70;46.08
75838;SHT30;64480;52.040;113.502;2022-11-15T07:06:11;3.64;46.07
75838;SHT30;64480;52.040;113.502;2022-11-15T07:10:14;3.62;46.54
75838;SHT30;64480;52.040;113.502;2022-11-15T07:14:06;3.55;46.48
75838;SHT30;64480;52.040;113.502;2022-11-15T07:17:30;3.42;46.90
75838;SHT30;64480;52.040;113.502;2022-11-15T07:21:11;3.43;47.12
75838;SHT30;64480;52.040;113.502;2022-11-15T07:24:50;3.49;47.08
75838;SHT30;64480;52.040;113.502;2022-11-15T07:28:20;3.45;47.36
75838;SHT30;64480;52.040;113.502;2022-11-15T07:31:49;3.39;47.60
75838;SHT30;64480;52.040;113.502;2022-11-15T07:35:38;3.34;48.16
75838;SHT30;64480;52.040;113.502;2022-11-15T07:39:22;3.12;48.70
75838;SHT30;64480;52.040;113.502;2022-11-15T07:42:46;2.93;49.48
75838;SHT30;64480;52.040;113.502;2022-11-15T07:46:14;2.75;49.44
75838;SHT30;64480;52.040;113.502;2022-11-15T07:49:38;2.63;49.63
75838;SHT30;64480;52.040;113.502;2022-11-15T07:53:03;2.55;49.83
75838;SHT30;64480;52.040;113.502;2022-11-15T07:56:30;2.46;50.07
75838;SHT30;64480;52.040;113.502;2022-11-15T08:00:37;2.38;50.27
75838;SHT30;64480;52.040;113.502;2022-11-15T08:04:11;2.21;50.90
75838;SHT30;64480;52.040;113.502;2022-11-15T08:07:43;2.14;50.78
75838;SHT30;64480;52.040;113.502;2022-11-15T08:16:15;1.98;50.95
75838;SHT30;64480;52.040;113.502;2022-11-15T08:20:14;1.87;51.03
75838;SHT30;64480;52.040;113.502;2022-11-15T08:23:43;1.81;50.81
75838;SHT30;64480;52.040;113.502;2022-11-15T08:27:13;1.77;50.77
75838;SHT30;64480;52.040;113.502;2022-11-15T08:30:42;1.74;50.82
75838;SHT30;64480;52.040;113.502;2022-11-15T08:39:11;1.58;51.51
75838;SHT30;64480;52.040;113.502;2022-11-15T08:47:21;1.42;52.46
75838;SHT30;64480;52.040;113.502;2022-11-15T08:51:24;1.32;52.85
75838;SHT30;64480;52.040;113.502;2022-11-15T08:54:51;1.20;53.71
75838;SHT30;64480;52.040;113.502;2022-11-15T08:58:12;1.09;54.49
75838;SHT30;64480;52.040;113.502;2022-11-15T09:01:52;0.98;55.00
75838;SHT30;64480;52.040;113.502;2022-11-15T09:05:17;0.84;54.92
75838;SHT30;64480;52.040;113.502;2022-11-15T09:08:39;0.83;54.33
75838;SHT30;64480;52.040;113.502;2022-11-15T09:12:03;0.81;54.35
75838;SHT30;64480;52.040;113.502;2022-11-15T09:15:24;0.77;54.71
75838;SHT30;64480;52.040;113.502;2022-11-15T09:22:59;0.66;55.08
75838;SHT30;64480;52.040;113.502;2022-11-15T09:26:53;0.56;55.47
75838;SHT30;64480;52.040;113.502;2022-11-15T09:33:27;0.41;55.96
75838;SHT30;64480;52.040;113.502;2022-11-15T09:36:55;0.35;56.26
75838;SHT30;64480;52.040;113.502;2022-11-15T09:40:24;0.28;56.71
75838;SHT30;64480;52.040;113.502;2022-11-15T09:44:13;0.21;56.93
75838;SHT30;64480;52.040;113.502;2022-11-15T09:48:13;0.11;57.09
75838;SHT30;64480;52.040;113.502;2022-11-15T09:51:55;0.07;57.85
75838;SHT30;64480;52.040;113.502;2022-11-15T09:55:11;0.01;57.75
75838;SHT30;64480;52.040;113.502;2022-11-15T10:09:40;-0.24;57.80
75838;SHT30;64480;52.040;113.502;2022-11-15T10:12:57;-0.31;58.19
75838;SHT30;64480;52.040;113.502;2022-11-15T10:23:06;-0.39;58.22
75838;SHT30;64480;52.040;113.502;2022-11-15T10:26:15;-0.39;58.39
75838;SHT30;64480;52.040;113.502;2022-11-15T10:29:23;-0.45;58.36
75838;SHT30;64480;52.040;113.502;2022-11-15T10:32:42;-0.51;58.87
75838;SHT30;64480;52.040;113.502;2022-11-15T10:36:29;-0.51;59.33
75838;SHT30;64480;52.040;113.502;2022-11-15T10:39:33;-0.58;59.31
75838;SHT30;64480;52.040;113.502;2022-11-15T10:43:12;-0.58;58.88
75838;SHT30;64480;52.040;113.502;2022-11-15T10:46:46;-0.61;59.04
75838;SHT30;64480;52.040;113.502;2022-11-15T10:50:05;-0.55;59.19
75838;SHT30;64480;52.040;113.502;2022-11-15T10:56:27;-0.57;58.57
75838;SHT30;64480;52.040;113.502;2022-11-15T10:59:53;-0.62;59.02
75838;SHT30;64480;52.040;113.502;2022-11-15T11:03:34;-0.64;59.45
75838;SHT30;64480;52.040;113.502;2022-11-15T11:06:55;-0.66;59.73
75838;SHT30;64480;52.040;113.502;2022-11-15T11:10:23;-0.72;59.89
75838;SHT30;64480;52.040;113.502;2022-11-15T11:14:26;-0.76;60.18
75838;SHT30;64480;52.040;113.502;2022-11-15T11:18:20;-0.77;60.02
75838;SHT30;64480;52.040;113.502;2022-11-15T11:21:26;-0.79;59.90
75838;SHT30;64480;52.040;113.502;2022-11-15T11:46:35;-0.96;59.72
75838;SHT30;64480;52.040;113.502;2022-11-15T11:50:21;-0.93;59.87
75838;SHT30;64480;52.040;113.502;2022-11-15T11:53:47;-0.87;59.70
75838;SHT30;64480;52.040;113.502;2022-11-15T11:57:02;-0.86;59.70
75838;SHT30;64480;52.040;113.502;2022-11-15T12:00:23;-0.86;59.59
75838;SHT30;64480;52.040;113.502;2022-11-15T12:03:50;-0.86;59.70
75838;SHT30;64480;52.040;113.502;2022-11-15T12:07:27;-0.92;59.78
75838;SHT30;64480;52.040;113.502;2022-11-15T12:10:33;-0.92;59.90
75838;SHT30;64480;52.040;113.502;2022-11-15T12:13:39;-0.92;59.81
75838;SHT30;64480;52.040;113.502;2022-11-15T12:16:48;-0.92;59.91
75838;SHT30;64480;52.040;113.502;2022-11-15T12:19:59;-0.94;59.96
75838;SHT30;64480;52.040;113.502;2022-11-15T12:23:23;-0.96;59.84
75838;SHT30;64480;52.040;113.502;2022-11-15T12:26:55;-0.94;59.91
75838;SHT30;64480;52.040;113.502;2022-11-15T12:30:21;-1.00;60.21
75838;SHT30;64480;52.040;113.502;2022-11-15T12:33:31;-1.03;60.24
75838;SHT30;64480;52.040;113.502;2022-11-15T12:36:44;-1.24;60.69
75838;SHT30;64480;52.040;113.502;2022-11-15T12:40:21;-1.48;61.58
75838;SHT30;64480;52.040;113.502;2022-11-15T12:43:53;-1.68;62.43
75838;SHT30;64480;52.040;113.502;2022-11-15T12:53:39;-2.05;63.87
75838;SHT30;64480;52.040;113.502;2022-11-15T12:56:47;-2.14;63.87
75838;SHT30;64480;52.040;113.502;2022-11-15T13:03:24;-2.27;64.35
75838;SHT30;64480;52.040;113.502;2022-11-15T13:06:42;-2.34;64.98
75838;SHT30;64480;52.040;113.502;2022-11-15T13:13:44;-2.22;64.73
75838;SHT30;64480;52.040;113.502;2022-11-15T13:20:44;-2.37;65.05
75838;SHT30;64480;52.040;113.502;2022-11-15T13:23:52;-2.40;65.18
75838;SHT30;64480;52.040;113.502;2022-11-15T13:26:58;-2.48;65.15
75838;SHT30;64480;52.040;113.502;2022-11-15T13:30:03;-2.55;65.33
75838;SHT30;64480;52.040;113.502;2022-11-15T13:33:20;-2.59;65.58
75838;SHT30;64480;52.040;113.502;2022-11-15T13:36:37;-2.58;65.74
75838;SHT30;64480;52.040;113.502;2022-11-15T13:39:40;-2.48;66.34
75838;SHT30;64480;52.040;113.502;2022-11-15T13:42:44;-2.40;65.68
75838;SHT30;64480;52.040;113.502;2022-11-15T13:46:12;-2.37;65.68
75838;SHT30;64480;52.040;113.502;2022-11-15T13:49:29;-2.37;65.60
75838;SHT30;64480;52.040;113.502;2022-11-15T13:52:46;-2.35;65.96
75838;SHT30;64480;52.040;113.502;2022-11-15T13:55:55;-2.34;65.96
75838;SHT30;64480;52.040;113.502;2022-11-15T13:59:30;-2.31;65.78
75838;SHT30;64480;52.040;113.502;2022-11-15T14:02:35;-2.32;65.33
75838;SHT30;64480;52.040;113.502;2022-11-15T14:05:39;-2.32;65.06
75838;SHT30;64480;52.040;113.502;2022-11-15T14:12:27;-2.40;65.37
75838;SHT30;64480;52.040;113.502;2022-11-15T14:15:38;-2.58;66.01
75838;SHT30;64480;52.040;113.502;2022-11-15T14:18:45;-2.81;66.67
75838;SHT30;64480;52.040;113.502;2022-11-15T14:22:10;-3.03;67.71
75838;SHT30;64480;52.040;113.502;2022-11-15T14:25:38;-3.09;67.60
75838;SHT30;64480;52.040;113.502;2022-11-15T14:28:47;-3.09;67.54
75838;SHT30;64480;52.040;113.502;2022-11-15T14:32:18;-3.12;67.76
75838;SHT30;64480;52.040;113.502;2022-11-15T14:35:25;-3.11;68.15
75838;SHT30;64480;52.040;113.502;2022-11-15T14:38:28;-3.12;68.04
75838;SHT30;64480;52.040;113.502;2022-11-15T14:41:35;-3.09;68.20
75838;SHT30;64480;52.040;113.502;2022-11-15T14:44:42;-3.09;67.96
75838;SHT30;64480;52.040;113.502;2022-11-15T14:47:47;-3.18;67.59
75838;SHT30;64480;52.040;113.502;2022-11-15T14:50:51;-3.25;68.14
75838;SHT30;64480;52.040;113.502;2022-11-15T14:53:54;-3.22;68.05
75838;SHT30;64480;52.040;113.502;2022-11-15T14:56:58;-3.27;68.40
75838;SHT30;64480;52.040;113.502;2022-11-15T15:00:01;-3.31;68.96
75838;SHT30;64480;52.040;113.502;2022-11-15T15:03:14;-3.32;69.17
75838;SHT30;64480;52.040;113.502;2022-11-15T15:06:18;-3.31;68.60
75838;SHT30;64480;52.040;113.502;2022-11-15T15:09:21;-3.38;68.22
75838;SHT30;64480;52.040;113.502;2022-11-15T15:12:24;-3.51;68.43
75838;SHT30;64480;52.040;113.502;2022-11-15T15:15:36;-3.56;68.73
75838;SHT30;64480;52.040;113.502;2022-11-15T15:18:39;-3.59;68.80
75838;SHT30;64480;52.040;113.502;2022-11-15T15:21:42;-3.59;69.40
75838;SHT30;64480;52.040;113.502;2022-11-15T15:24:46;-3.64;69.30
75838;SHT30;64480;52.040;113.502;2022-11-15T15:27:49;-3.69;69.08
75838;SHT30;64480;52.040;113.502;2022-11-15T15:30:52;-3.70;69.00
75838;SHT30;64480;52.040;113.502;2022-11-15T15:33:56;-3.74;68.61
75838;SHT30;64480;52.040;113.502;2022-11-15T15:40:22;-3.90;68.77
75838;SHT30;64480;52.040;113.502;2022-11-15T15:43:25;-3.88;68.82
75838;SHT30;64480;52.040;113.502;2022-11-15T15:46:28;-3.93;68.55
75838;SHT30;64480;52.040;113.502;2022-11-15T15:49:31;-3.98;68.29
75838;SHT30;64480;52.040;113.502;2022-11-15T15:52:34;-4.02;68.30
75838;SHT30;64480;52.040;113.502;2022-11-15T15:55:38;-4.08;68.79
75838;SHT30;64480;52.040;113.502;2022-11-15T15:58:42;-4.08;69.11
75838;SHT30;64480;52.040;113.502;2022-11-15T16:01:45;-4.02;68.79
75838;SHT30;64480;52.040;113.502;2022-11-15T16:04:49;-3.98;68.66
75838;SHT30;64480;52.040;113.502;2022-11-15T16:07:53;-3.93;68.29
75838;SHT30;64480;52.040;113.502;2022-11-15T16:13:59;-3.90;68.14
75838;SHT30;64480;52.040;113.502;2022-11-15T16:17:03;-3.94;68.49
75838;SHT30;64480;52.040;113.502;2022-11-15T16:20:23;-3.95;67.50
75838;SHT30;64480;52.040;113.502;2022-11-15T16:23:27;-4.12;67.91
75838;SHT30;64480;52.040;113.502;2022-11-15T16:26:32;-4.28;69.60
75838;SHT30;64480;52.040;113.502;2022-11-15T16:29:38;-4.32;70.41
75838;SHT30;64480;52.040;113.502;2022-11-15T16:32:43;-4.32;71.39
75838;SHT30;64480;52.040;113.502;2022-11-15T16:39:02;-4.18;70.80
75838;SHT30;64480;52.040;113.502;2022-11-15T16:42:07;-4.18;70.74
75838;SHT30;64480;52.040;113.502;2022-11-15T16:45:13;-4.29;71.02
75838;SHT30;64480;52.040;113.502;2022-11-15T16:48:25;-4.28;70.63
75838;SHT30;64480;52.040;113.502;2022-11-15T16:51:29;-4.37;70.92
75838;SHT30;64480;52.040;113.502;2022-11-15T16:54:32;-4.42;70.89
75838;SHT30;64480;52.040;113.502;2022-11-15T16:57:36;-4.39;70.85
75838;SHT30;64480;52.040;113.502;2022-11-15T17:00:39;-4.39;70.91
75838;SHT30;64480;52.040;113.502;2022-11-15T17:03:42;-4.41;70.07
75838;SHT30;64480;52.040;113.502;2022-11-15T17:06:47;-4.43;69.56
75838;SHT30;64480;52.040;113.502;2022-11-15T17:09:51;-4.56;69.41
75838;SHT30;64480;52.040;113.502;2022-11-15T17:12:55;-4.62;69.46
75838;SHT30;64480;52.040;113.502;2022-11-15T17:16:04;-4.67;69.16
75838;SHT30;64480;52.040;113.502;2022-11-15T17:19:13;-4.79;69.37
75838;SHT30;64480;52.040;113.502;2022-11-15T17:22:16;-4.91;70.02
75838;SHT30;64480;52.040;113.502;2022-11-15T17:25:20;-5.01;70.44
75838;SHT30;64480;52.040;113.502;2022-11-15T17:28:25;-4.98;70.53
75838;SHT30;64480;52.040;113.502;2022-11-15T17:31:29;-4.91;70.17
75838;SHT30;64480;52.040;113.502;2022-11-15T17:34:35;-4.95;69.67
75838;SHT30;64480;52.040;113.502;2022-11-15T17:37:39;-4.97;69.46
75838;SHT30;64480;52.040;113.502;2022-11-15T17:40:42;-5.01;69.29
75838;SHT30;64480;52.040;113.502;2022-11-15T17:43:46;-5.12;69.48
75838;SHT30;64480;52.040;113.502;2022-11-15T17:46:51;-5.18;69.73
75838;SHT30;64480;52.040;113.502;2022-11-15T17:49:54;-5.29;69.83
75838;SHT30;64480;52.040;113.502;2022-11-15T17:52:58;-5.42;70.16
75838;SHT30;64480;52.040;113.502;2022-11-15T17:56:07;-5.50;70.59
75838;SHT30;64480;52.040;113.502;2022-11-15T17:59:13;-5.57;70.89
75838;SHT30;64480;52.040;113.502;2022-11-15T18:02:22;-5.66;71.08
75838;SHT30;64480;52.040;113.502;2022-11-15T18:05:26;-5.57;70.94
75838;SHT30;64480;52.040;113.502;2022-11-15T18:08:29;-5.53;70.40
75838;SHT30;64480;52.040;113.502;2022-11-15T18:11:38;-5.56;69.86
75838;SHT30;64480;52.040;113.502;2022-11-15T18:14:42;-5.63;69.80
75838;SHT30;64480;52.040;113.502;2022-11-15T18:17:46;-5.62;69.77
75838;SHT30;64480;52.040;113.502;2022-11-15T18:20:49;-5.74;70.06
75838;SHT30;64480;52.040;113.502;2022-11-15T18:23:54;-5.88;69.88
75838;SHT30;64480;52.040;113.502;2022-11-15T18:27:01;-5.92;70.29
75838;SHT30;64480;52.040;113.502;2022-11-15T18:30:05;-5.99;70.59
75838;SHT30;64480;52.040;113.502;2022-11-15T18:33:08;-5.97;70.48
75838;SHT30;64480;52.040;113.502;2022-11-15T18:36:14;-6.06;70.70
75838;SHT30;64480;52.040;113.502;2022-11-15T18:39:18;-6.08;70.89
75838;SHT30;64480;52.040;113.502;2022-11-15T18:42:21;-6.18;71.17
75838;SHT30;64480;52.040;113.502;2022-11-15T18:45:24;-6.15;70.97
75838;SHT30;64480;52.040;113.502;2022-11-15T18:48:32;-6.16;70.73
75838;SHT30;64480;52.040;113.502;2022-11-15T18:51:38;-6.23;71.01
75838;SHT30;64480;52.040;113.502;2022-11-15T18:54:43;-6.22;71.26
75838;SHT30;64480;52.040;113.502;2022-11-15T18:57:46;-6.18;71.37
75838;SHT30;64480;52.040;113.502;2022-11-15T19:00:59;-6.18;70.88
75838;SHT30;64480;52.040;113.502;2022-11-15T19:04:11;-6.30;70.95
75838;SHT30;64480;52.040;113.502;2022-11-15T19:07:14;-6.29;70.30
75838;SHT30;64480;52.040;113.502;2022-11-15T19:10:18;-6.28;70.12
75838;SHT30;64480;52.040;113.502;2022-11-15T19:13:22;-6.30;70.13
75838;SHT30;64480;52.040;113.502;2022-11-15T19:16:26;-6.36;69.80
75838;SHT30;64480;52.040;113.502;2022-11-15T19:19:30;-6.37;69.83
75838;SHT30;64480;52.040;113.502;2022-11-15T19:22:34;-6.41;69.76
75838;SHT30;64480;52.040;113.502;2022-11-15T19:25:37;-6.46;70.16
75838;SHT30;64480;52.040;113.502;2022-11-15T19:28:41;-6.43;70.09
75838;SHT30;64480;52.040;113.502;2022-11-15T19:31:45;-6.43;70.14
75838;SHT30;64480;52.040;113.502;2022-11-15T19:34:50;-6.63;70.70
75838;SHT30;64480;52.040;113.502;2022-11-15T19:37:53;-6.56;71.18
75838;SHT30;64480;52.040;113.502;2022-11-15T19:41:01;-6.48;70.77
75838;SHT30;64480;52.040;113.502;2022-11-15T19:44:05;-6.48;70.57
75838;SHT30;64480;52.040;113.502;2022-11-15T19:47:08;-6.58;70.20
75838;SHT30;64480;52.040;113.502;2022-11-15T19:50:13;-6.73;70.71
75838;SHT30;64480;52.040;113.502;2022-11-15T19:53:16;-6.80;70.87
75838;SHT30;64480;52.040;113.502;2022-11-15T19:56:20;-6.82;70.79
75838;SHT30;64480;52.040;113.502;2022-11-15T19:59:24;-6.89;70.35
75838;SHT30;64480;52.040;113.502;2022-11-15T20:02:27;-7.05;70.65
75838;SHT30;64480;52.040;113.502;2022-11-15T20:05:30;-7.11;70.89
75838;SHT30;64480;52.040;113.502;2022-11-15T20:08:34;-7.05;70.79
75838;SHT30;64480;52.040;113.502;2022-11-15T20:11:38;-7.08;70.83
75838;SHT30;64480;52.040;113.502;2022-11-15T20:14:41;-7.11;70.98
75838;SHT30;64480;52.040;113.502;2022-11-15T20:17:44;-7.11;70.95
75838;SHT30;64480;52.040;113.502;2022-11-15T20:20:48;-7.18;70.59
75838;SHT30;64480;52.040;113.502;2022-11-15T20:23:51;-7.20;70.77
75838;SHT30;64480;52.040;113.502;2022-11-15T20:26:54;-7.19;70.52
75838;SHT30;64480;52.040;113.502;2022-11-15T20:29:59;-7.08;70.03
75838;SHT30;64480;52.040;113.502;2022-11-15T20:33:02;-7.06;69.73
75838;SHT30;64480;52.040;113.502;2022-11-15T20:36:08;-7.06;69.73
75838;SHT30;64480;52.040;113.502;2022-11-15T20:39:12;-7.12;69.96
75838;SHT30;64480;52.040;113.502;2022-11-15T20:42:15;-7.06;69.78
75838;SHT30;64480;52.040;113.502;2022-11-15T20:45:19;-7.09;70.07
75838;SHT30;64480;52.040;113.502;2022-11-15T20:48:24;-7.03;69.61
75838;SHT30;64480;52.040;113.502;2022-11-15T20:51:27;-7.22;69.82
75838;SHT30;64480;52.040;113.502;2022-11-15T20:54:31;-7.22;70.27
75838;SHT30;64480;52.040;113.502;2022-11-15T20:57:34;-7.16;70.10
75838;SHT30;64480;52.040;113.502;2022-11-15T21:00:37;-7.12;69.84
75838;SHT30;64480;52.040;113.502;2022-11-15T21:03:40;-7.18;69.55
75838;SHT30;64480;52.040;113.502;2022-11-15T21:06:44;-7.06;69.18
75838;SHT30;64480;52.040;113.502;2022-11-15T21:09:50;-7.08;68.54
75838;SHT30;64480;52.040;113.502;2022-11-15T21:13:11;-7.22;68.82
75838;SHT30;64480;52.040;113.502;2022-11-15T21:16:15;-7.16;68.85
75838;SHT30;64480;52.040;113.502;2022-11-15T21:19:19;-7.20;68.14
75838;SHT30;64480;52.040;113.502;2022-11-15T21:22:32;-7.48;67.61
75838;SHT30;64480;52.040;113.502;2022-11-15T21:25:35;-7.79;68.29
75838;SHT30;64480;52.040;113.502;2022-11-15T21:28:38;-7.86;68.67
75838;SHT30;64480;52.040;113.502;2022-11-15T21:31:45;-8.01;69.21
75838;SHT30;64480;52.040;113.502;2022-11-15T21:34:48;-8.10;69.62
75838;SHT30;64480;52.040;113.502;2022-11-15T21:37:52;-7.96;69.22
75838;SHT30;64480;52.040;113.502;2022-11-15T21:41:02;-7.96;68.68
75838;SHT30;64480;52.040;113.502;2022-11-15T21:44:05;-8.01;68.73
75838;SHT30;64480;52.040;113.502;2022-11-15T21:47:08;-7.86;68.41
75838;SHT30;64480;52.040;113.502;2022-11-15T21:50:12;-8.02;68.40
75838;SHT30;64480;52.040;113.502;2022-11-15T21:53:15;-8.27;69.14
75838;SHT30;64480;52.040;113.502;2022-11-15T21:56:18;-8.16;68.84
75838;SHT30;64480;52.040;113.502;2022-11-15T21:59:21;-8.14;68.49
75838;SHT30;64480;52.040;113.502;2022-11-15T22:02:24;-8.03;67.48
75838;SHT30;64480;52.040;113.502;2022-11-15T22:05:28;-8.09;67.40
75838;SHT30;64480;52.040;113.502;2022-11-15T22:08:31;-8.07;67.25
75838;SHT30;64480;52.040;113.502;2022-11-15T22:11:35;-8.22;67.62
75838;SHT30;64480;52.040;113.502;2022-11-15T22:14:38;-8.19;67.76
75838;SHT30;64480;52.040;113.502;2022-11-15T22:17:50;-8.13;67.73
75838;SHT30;64480;52.040;113.502;2022-11-15T22:21:02;-8.20;67.96
75838;SHT30;64480;52.040;113.502;2022-11-15T22:24:06;-8.23;67.84
75838;SHT30;64480;52.040;113.502;2022-11-15T22:27:09;-8.27;68.29
75838;SHT30;64480;52.040;113.502;2022-11-15T22:30:13;-8.26;68.50
75838;SHT30;64480;52.040;113.502;2022-11-15T22:33:17;-8.34;68.53
75838;SHT30;64480;52.040;113.502;2022-11-15T22:36:21;-8.17;68.94
75838;SHT30;64480;52.040;113.502;2022-11-15T22:39:34;-8.24;68.67
75838;SHT30;64480;52.040;113.502;2022-11-15T22:42:37;-8.34;68.65
75838;SHT30;64480;52.040;113.502;2022-11-15T22:46:06;-8.34;68.99
75838;SHT30;64480;52.040;113.502;2022-11-15T22:49:10;-8.34;68.73
75838;SHT30;64480;52.040;113.502;2022-11-15T22:52:13;-8.36;68.15
75838;SHT30;64480;52.040;113.502;2022-11-15T22:55:17;-8.41;68.04
75838;SHT30;64480;52.040;113.502;2022-11-15T22:58:22;-8.45;68.04
75838;SHT30;64480;52.040;113.502;2022-11-15T23:01:25;-8.42;68.16
75838;SHT30;64480;52.040;113.502;2022-11-15T23:04:29;-8.44;68.30
75838;SHT30;64480;52.040;113.502;2022-11-15T23:07:32;-8.50;67.68
75838;SHT30;64480;52.040;113.502;2022-11-15T23:10:37;-8.47;67.62
75838;SHT30;64480;52.040;113.502;2022-11-15T23:13:59;-8.38;67.34
75838;SHT30;64480;52.040;113.502;2022-11-15T23:17:03;-8.52;66.79
75838;SHT30;64480;52.040;113.502;2022-11-15T23:20:06;-8.50;67.56
75838;SHT30;64480;52.040;113.502;2022-11-15T23:23:30;-8.59;67.09
75838;SHT30;64480;52.040;113.502;2022-11-15T23:26:33;-8.65;67.26
75838;SHT30;64480;52.040;113.502;2022-11-15T23:29:36;-8.76;68.15
75838;SHT30;64480;52.040;113.502;2022-11-15T23:33:00;-8.71;68.06
75838;SHT30;64480;52.040;113.502;2022-11-15T23:36:24;-8.69;68.11
75838;SHT30;64480;52.040;113.502;2022-11-15T23:39:27;-8.76;67.89
75838;SHT30;64480;52.040;113.502;2022-11-15T23:42:31;-8.86;68.25
75838;SHT30;64480;52.040;113.502;2022-11-15T23:45:36;-8.96;68.99
75838;SHT30;64480;52.040;113.502;2022-11-15T23:48:40;-8.96;69.23
75838;SHT30;64480;52.040;113.502;2022-11-15T23:51:43;-8.96;69.21
75838;SHT30;64480;52.040;113.502;2022-11-15T23:54:46;-8.82;69.19
75838;SHT30;64480;52.040;113.502;2022-11-15T23:57:50;-8.75;68.72
